createdAt,value
2023-04-30T00:01:26.443Z,31.03
2023-04-30T00:03:52.867Z,31.20
2023-04-30T00:06:19.161Z,30.67
2023-04-30T00:08:45.474Z,30.33
2023-04-30T00:11:11.748Z,31.77
2023-04-30T00:13:38.000Z,29.67
2023-04-30T00:16:04.557Z,31.23
2023-04-30T00:18:30.848Z,31.87
2023-04-30T00:20:57.117Z,30.57
2023-04-30T00:23:23.369Z,30.50
2023-04-30T00:25:49.606Z,31.07
2023-04-30T00:28:15.968Z,31.17
2023-04-30T00:30:42.440Z,29.53
2023-04-30T00:33:08.775Z,30.60
2023-04-30T00:35:35.280Z,31.23
2023-04-30T00:38:01.846Z,30.53
2023-04-30T00:40:28.184Z,31.87
2023-04-30T00:42:55.735Z,31.13
2023-04-30T00:45:22.494Z,32.07
2023-04-30T00:47:49.121Z,30.67
2023-04-30T00:50:16.379Z,31.80
2023-04-30T00:52:43.098Z,29.90
2023-04-30T00:55:10.034Z,30.83
2023-04-30T00:57:36.602Z,30.53
2023-04-30T01:00:02.938Z,31.27
2023-04-30T01:02:29.670Z,30.97
2023-04-30T01:04:56.420Z,29.60
2023-04-30T01:07:22.926Z,29.30
2023-04-30T01:09:49.340Z,29.50
2023-04-30T01:12:21.732Z,28.67
2023-04-30T01:15:04.106Z,29.40
2023-04-30T01:17:43.946Z,29.13
2023-04-30T01:20:11.325Z,29.43
2023-04-30T01:22:43.820Z,29.37
2023-04-30T01:25:10.025Z,29.30
2023-04-30T01:27:59.164Z,28.07
2023-04-30T01:30:25.904Z,29.57
2023-04-30T01:32:52.254Z,28.17
2023-04-30T01:35:18.538Z,27.77
2023-04-30T01:37:45.767Z,28.03
2023-04-30T01:40:28.287Z,28.23
2023-04-30T01:43:09.789Z,27.53
2023-04-30T01:45:45.098Z,26.73
2023-04-30T01:48:30.390Z,27.80
2023-04-30T01:51:01.862Z,26.57
2023-04-30T01:53:40.002Z,27.33
2023-04-30T01:56:09.441Z,27.33
2023-04-30T01:58:37.575Z,27.20
2023-04-30T02:01:04.049Z,26.10
2023-04-30T02:03:30.479Z,26.83
2023-04-30T02:05:56.889Z,26.77
2023-04-30T02:08:23.225Z,25.60
2023-04-30T02:10:49.488Z,26.37
2023-04-30T02:13:15.861Z,26.53
2023-04-30T02:15:42.247Z,25.33
2023-04-30T02:18:08.702Z,25.17
2023-04-30T02:20:35.065Z,23.27
2023-04-30T02:23:01.356Z,22.17
2023-04-30T02:25:27.729Z,22.13
2023-04-30T02:27:54.017Z,22.43
2023-04-30T02:30:20.893Z,21.27
2023-04-30T02:32:48.042Z,21.37
2023-04-30T02:35:14.283Z,21.70
2023-04-30T02:37:40.984Z,21.47
2023-04-30T02:40:07.885Z,20.87
2023-04-30T02:42:34.170Z,21.00
2023-04-30T02:45:00.578Z,21.43
2023-04-30T02:47:26.881Z,21.17
2023-04-30T02:49:53.416Z,20.23
2023-04-30T02:52:19.824Z,19.50
2023-04-30T02:54:46.170Z,21.03
2023-04-30T02:57:12.515Z,20.57
2023-04-30T02:59:38.849Z,22.00
2023-04-30T03:02:05.713Z,20.83
2023-04-30T03:04:32.067Z,21.80
2023-04-30T03:07:00.403Z,21.40
2023-04-30T03:09:26.618Z,22.33
2023-04-30T03:11:52.863Z,20.93
2023-04-30T03:14:19.145Z,21.17
2023-04-30T03:16:45.619Z,21.43
2023-04-30T03:19:11.970Z,21.73
2023-04-30T03:21:38.293Z,20.87
2023-04-30T03:24:05.182Z,21.27
2023-04-30T03:26:31.445Z,21.93
2023-04-30T03:28:57.676Z,22.00
2023-04-30T03:31:24.138Z,21.97
2023-04-30T03:33:50.893Z,22.77
2023-04-30T03:36:17.241Z,22.53
2023-04-30T03:38:43.582Z,22.60
2023-04-30T03:41:09.895Z,22.33
2023-04-30T03:43:36.650Z,22.07
2023-04-30T03:46:03.102Z,23.10
2023-04-30T03:48:29.476Z,23.93
2023-04-30T03:50:55.797Z,24.57
2023-04-30T03:53:22.162Z,24.57
2023-04-30T03:55:49.246Z,25.00
2023-04-30T03:58:15.709Z,24.13
2023-04-30T04:00:42.012Z,24.03
2023-04-30T04:03:08.424Z,23.87
2023-04-30T04:05:34.714Z,23.00
2023-04-30T04:08:01.380Z,22.83
2023-04-30T04:10:27.793Z,22.93
2023-04-30T04:12:54.131Z,22.63
2023-04-30T04:15:20.565Z,24.03
2023-04-30T04:17:46.869Z,24.23
2023-04-30T04:20:14.123Z,22.30
2023-04-30T04:22:40.547Z,22.33
2023-04-30T04:25:07.053Z,21.70
2023-04-30T04:27:33.508Z,22.07
2023-04-30T04:29:59.786Z,21.60
2023-04-30T04:32:27.328Z,23.63
2023-04-30T04:34:54.293Z,23.73
2023-04-30T04:37:20.729Z,23.43
2023-04-30T04:39:46.982Z,23.87
2023-04-30T04:42:13.764Z,22.93
2023-04-30T04:44:41.244Z,22.60
2023-04-30T04:47:08.126Z,22.13
2023-04-30T04:49:34.377Z,22.33
2023-04-30T04:52:01.971Z,23.77
2023-04-30T04:54:28.254Z,24.40
2023-04-30T04:56:54.558Z,22.53
2023-04-30T04:59:20.838Z,22.17
2023-04-30T05:01:47.406Z,22.30
2023-04-30T05:04:14.059Z,22.00
2023-04-30T05:06:41.538Z,21.53
2023-04-30T05:09:09.360Z,21.73
2023-04-30T05:11:35.858Z,20.73
2023-04-30T05:14:02.123Z,20.40
2023-04-30T05:16:28.547Z,21.10
2023-04-30T05:18:54.926Z,48.23
2023-04-30T05:21:21.309Z,81.87
2023-04-30T05:23:47.597Z,23.27
2023-04-30T05:26:13.848Z,22.40
2023-04-30T05:28:40.180Z,22.10
2023-04-30T05:31:06.529Z,21.70
2023-04-30T05:33:33.663Z,20.30
2023-04-30T05:35:59.976Z,21.30
2023-04-30T05:38:26.243Z,21.37
2023-04-30T05:40:52.547Z,21.00
2023-04-30T05:43:18.811Z,20.10
2023-04-30T05:45:45.103Z,20.27
2023-04-30T05:48:11.419Z,20.40
2023-04-30T05:50:37.727Z,20.07
2023-04-30T05:53:03.958Z,19.27
2023-04-30T05:55:30.955Z,17.77
2023-04-30T05:58:00.658Z,18.17
2023-04-30T06:00:26.889Z,18.93
2023-04-30T06:02:53.715Z,19.37
2023-04-30T06:05:20.100Z,18.50
2023-04-30T06:07:46.397Z,18.57
2023-04-30T06:10:12.914Z,150.03
2023-04-30T06:12:39.866Z,28.10
2023-04-30T06:15:06.640Z,19.37
2023-04-30T06:17:32.994Z,17.63
2023-04-30T06:20:02.194Z,17.90
2023-04-30T06:22:29.195Z,17.03
2023-04-30T06:24:57.696Z,40.63
2023-04-30T06:27:24.888Z,33.17
2023-04-30T06:29:51.176Z,22.07
2023-04-30T06:32:17.469Z,18.70
2023-04-30T06:34:43.709Z,17.80
2023-04-30T06:37:09.974Z,20.07
2023-04-30T06:39:36.272Z,20.03
2023-04-30T06:42:02.574Z,21.47
2023-04-30T06:44:28.869Z,22.67
2023-04-30T06:46:55.269Z,39.70
2023-04-30T06:49:21.547Z,48.57
2023-04-30T06:51:47.773Z,32.60
2023-04-30T06:54:14.426Z,28.03
2023-04-30T06:56:40.675Z,26.67
2023-04-30T06:59:06.903Z,25.30
2023-04-30T07:01:33.254Z,24.03
2023-04-30T07:04:00.617Z,24.73
2023-04-30T07:06:27.039Z,25.17
2023-04-30T07:08:53.342Z,25.20
2023-04-30T07:11:19.657Z,23.80
2023-04-30T07:13:46.008Z,24.23
2023-04-30T07:16:12.556Z,23.63
2023-04-30T07:18:39.496Z,45.43
2023-04-30T07:21:05.785Z,37.03
2023-04-30T07:23:32.088Z,26.17
2023-04-30T07:25:58.481Z,25.27
2023-04-30T07:28:24.716Z,24.10
2023-04-30T07:30:51.176Z,24.50
2023-04-30T07:33:17.563Z,24.27
2023-04-30T07:35:43.834Z,23.93
2023-04-30T07:38:10.462Z,22.97
2023-04-30T07:40:36.866Z,22.80
2023-04-30T07:43:04.426Z,22.73
2023-04-30T07:45:31.747Z,23.10
2023-04-30T07:47:58.229Z,23.13
2023-04-30T07:50:24.611Z,24.90
2023-04-30T07:52:50.910Z,32.83
2023-04-30T07:55:17.220Z,73.10
2023-04-30T07:57:43.526Z,32.10
2023-04-30T08:00:09.964Z,24.03
2023-04-30T08:02:37.310Z,22.93
2023-04-30T08:05:04.027Z,23.23
2023-04-30T08:07:30.465Z,21.70
2023-04-30T08:09:56.996Z,22.97
2023-04-30T08:12:23.760Z,22.63
2023-04-30T08:14:50.040Z,21.20
2023-04-30T08:17:16.542Z,19.03
2023-04-30T08:19:42.823Z,42.40
2023-04-30T08:22:09.160Z,73.20
2023-04-30T08:24:35.500Z,22.97
2023-04-30T08:27:03.890Z,18.43
2023-04-30T08:29:30.334Z,16.93
2023-04-30T08:31:58.678Z,16.40
2023-04-30T08:34:25.113Z,17.37
2023-04-30T08:36:51.361Z,16.10
2023-04-30T08:39:17.629Z,16.30
2023-04-30T08:41:46.348Z,16.03
2023-04-30T08:44:13.258Z,17.90
2023-04-30T08:46:40.735Z,16.90
2023-04-30T08:49:07.325Z,16.23
2023-04-30T08:51:33.729Z,15.87
2023-04-30T08:54:00.012Z,13.03
2023-04-30T08:56:26.339Z,16.73
2023-04-30T08:58:52.702Z,15.67
2023-04-30T09:01:19.798Z,17.10
2023-04-30T09:03:46.275Z,16.33
2023-04-30T09:06:15.765Z,15.00
2023-04-30T09:08:49.464Z,13.43
2023-04-30T09:11:23.060Z,12.60
2023-04-30T09:13:50.041Z,10.77
2023-04-30T09:16:16.373Z,11.43
2023-04-30T09:18:42.750Z,9.03
2023-04-30T09:21:09.156Z,8.27
2023-04-30T09:23:35.489Z,7.50
2023-04-30T09:26:01.906Z,4.77
2023-04-30T09:28:29.227Z,4.33
2023-04-30T09:30:56.939Z,3.10
2023-04-30T09:33:23.597Z,2.40
2023-04-30T09:35:50.009Z,2.73
2023-04-30T09:38:29.473Z,2.60
2023-04-30T09:40:57.816Z,2.70
2023-04-30T09:43:24.152Z,2.77
2023-04-30T09:45:52.372Z,2.70
2023-04-30T09:48:20.825Z,1.50
2023-04-30T09:50:48.017Z,1.83
2023-04-30T09:53:14.969Z,1.30
2023-04-30T09:55:43.194Z,2.13
2023-04-30T09:58:10.621Z,2.00
2023-04-30T10:00:37.659Z,2.27
2023-04-30T10:03:06.672Z,2.80
2023-04-30T10:05:36.214Z,2.50
2023-04-30T10:08:02.921Z,5.00
2023-04-30T10:10:31.221Z,4.20
2023-04-30T10:13:04.178Z,4.40
2023-04-30T10:15:36.415Z,2.87
2023-04-30T10:18:04.751Z,1.80
2023-04-30T10:20:31.904Z,1.70
2023-04-30T10:22:58.628Z,1.80
2023-04-30T10:25:26.465Z,1.33
2023-04-30T10:27:52.746Z,1.67
2023-04-30T10:30:19.079Z,1.90
2023-04-30T10:32:51.528Z,2.57
2023-04-30T10:35:21.864Z,3.33
2023-04-30T10:37:57.290Z,3.37
2023-04-30T10:40:26.253Z,4.20
2023-04-30T10:42:54.530Z,3.87
2023-04-30T10:45:34.520Z,3.17
2023-04-30T10:48:01.966Z,3.30
2023-04-30T10:50:29.349Z,3.03
2023-04-30T10:53:05.567Z,2.40
2023-04-30T10:55:32.049Z,2.80
2023-04-30T10:57:58.796Z,3.00
2023-04-30T11:00:26.512Z,2.90
2023-04-30T11:02:56.550Z,2.80
2023-04-30T11:05:33.232Z,3.13
2023-04-30T11:07:59.631Z,2.80
2023-04-30T11:10:28.363Z,2.60
2023-04-30T11:12:55.181Z,2.60
2023-04-30T11:15:24.468Z,3.13
2023-04-30T11:17:51.210Z,2.70
2023-04-30T11:20:21.409Z,2.60
2023-04-30T11:22:47.793Z,2.70
2023-04-30T11:25:19.122Z,2.63
2023-04-30T11:27:45.539Z,2.30
2023-04-30T11:30:14.953Z,2.07
2023-04-30T11:32:43.051Z,2.60
2023-04-30T11:35:09.639Z,3.10
2023-04-30T11:37:37.784Z,2.70
2023-04-30T11:40:05.922Z,2.63
2023-04-30T11:42:34.713Z,2.40
2023-04-30T11:45:05.648Z,2.80
2023-04-30T11:47:40.967Z,3.00
2023-04-30T11:50:11.892Z,2.90
2023-04-30T11:52:38.997Z,2.50
2023-04-30T11:55:06.205Z,2.27
2023-04-30T11:57:40.745Z,2.67
2023-04-30T12:00:30.467Z,2.70
2023-04-30T12:02:57.863Z,2.70
2023-04-30T12:05:25.162Z,2.03
2023-04-30T12:07:52.333Z,1.40
2023-04-30T12:10:19.293Z,1.87
2023-04-30T12:12:45.789Z,1.80
2023-04-30T12:15:13.200Z,1.80
2023-04-30T12:17:39.541Z,1.42
2023-04-30T12:20:06.464Z,1.70
2023-04-30T12:22:32.760Z,1.60
2023-04-30T12:24:59.997Z,1.30
2023-04-30T12:27:26.289Z,1.23
2023-04-30T12:29:54.913Z,1.20
2023-04-30T12:32:22.028Z,1.27
2023-04-30T12:34:48.756Z,1.40
2023-04-30T12:37:16.352Z,1.67
2023-04-30T12:39:43.128Z,1.17
2023-04-30T12:42:10.150Z,1.20
2023-04-30T12:44:44.288Z,1.10
2023-04-30T12:47:10.674Z,1.30
2023-04-30T12:49:37.005Z,1.13
2023-04-30T12:52:04.705Z,1.10
2023-04-30T12:54:32.656Z,1.05
2023-04-30T12:57:00.064Z,1.10
2023-04-30T12:59:26.415Z,0.90
2023-04-30T13:01:54.647Z,1.00
2023-04-30T13:04:21.304Z,0.60
2023-04-30T13:06:47.816Z,0.90
2023-04-30T13:09:14.153Z,0.75
2023-04-30T13:11:40.427Z,0.90
2023-04-30T13:14:06.753Z,0.95
2023-04-30T13:16:33.581Z,1.00
2023-04-30T13:18:59.882Z,0.80
2023-04-30T13:21:27.108Z,0.70
2023-04-30T13:23:54.899Z,1.33
2023-04-30T13:26:23.296Z,0.98
2023-04-30T13:28:49.864Z,0.70
2023-04-30T13:31:16.172Z,1.00
2023-04-30T13:33:42.724Z,0.80
2023-04-30T13:36:08.986Z,0.88
2023-04-30T13:38:35.285Z,0.73
2023-04-30T13:41:01.563Z,0.80
2023-04-30T13:43:27.802Z,0.90
2023-04-30T13:45:54.082Z,1.20
2023-04-30T13:48:20.352Z,0.80
2023-04-30T13:50:46.675Z,0.70
2023-04-30T13:53:12.996Z,0.88
2023-04-30T13:55:39.268Z,1.00
2023-04-30T13:58:05.571Z,0.90
2023-04-30T14:00:31.952Z,0.60
2023-04-30T14:02:58.422Z,0.60
2023-04-30T14:05:24.784Z,0.60
2023-04-30T14:07:51.093Z,0.60
2023-04-30T14:10:17.419Z,0.45
2023-04-30T14:12:43.822Z,1.02
2023-04-30T14:15:10.272Z,1.10
2023-04-30T14:17:36.622Z,0.70
2023-04-30T14:20:03.816Z,0.60
2023-04-30T14:22:31.079Z,2.03
2023-04-30T14:24:57.592Z,0.70
2023-04-30T14:27:24.558Z,2.08
2023-04-30T14:29:51.465Z,1.60
2023-04-30T14:32:17.867Z,1.00
2023-04-30T14:34:44.667Z,0.60
2023-04-30T14:37:10.907Z,1.65
2023-04-30T14:39:37.615Z,1.00
2023-04-30T14:42:04.087Z,0.80
2023-04-30T14:44:30.489Z,0.80
2023-04-30T14:46:56.779Z,0.60
2023-04-30T14:49:23.138Z,0.70
2023-04-30T14:51:49.461Z,0.73
2023-04-30T14:54:16.299Z,0.70
2023-04-30T14:56:42.535Z,0.90
2023-04-30T14:59:08.860Z,0.65
2023-04-30T15:01:35.237Z,1.33
2023-04-30T15:04:02.048Z,1.00
2023-04-30T15:06:28.403Z,1.30
2023-04-30T15:08:54.711Z,3.17
2023-04-30T15:11:21.050Z,2.72
2023-04-30T15:13:47.356Z,0.93
2023-04-30T15:16:13.705Z,0.93
2023-04-30T15:18:40.326Z,0.77
2023-04-30T15:21:06.777Z,0.70
2023-04-30T15:23:33.645Z,0.70
2023-04-30T15:26:01.084Z,0.68
2023-04-30T15:28:27.430Z,0.70
2023-04-30T15:30:54.014Z,0.60
2023-04-30T15:33:20.495Z,0.60
2023-04-30T15:35:47.497Z,0.60
2023-04-30T15:38:13.859Z,0.55
2023-04-30T15:40:40.501Z,0.60
2023-04-30T15:43:06.849Z,0.47
2023-04-30T15:45:33.593Z,0.75
2023-04-30T15:48:00.845Z,0.55
2023-04-30T15:50:27.710Z,0.70
2023-04-30T15:52:54.034Z,0.75
2023-04-30T15:55:20.494Z,0.75
2023-04-30T15:57:46.933Z,0.50
2023-04-30T16:00:15.102Z,0.68
2023-04-30T16:02:41.797Z,1.02
2023-04-30T16:05:08.364Z,0.85
2023-04-30T16:07:35.056Z,0.60
2023-04-30T16:10:01.743Z,36.20
2023-04-30T16:12:28.002Z,15.45
2023-04-30T16:14:54.301Z,7.25
2023-04-30T16:17:20.668Z,139.32
2023-04-30T16:19:47.154Z,7.82
2023-04-30T16:22:13.893Z,1.63
2023-04-30T16:24:41.035Z,1.30
2023-04-30T16:27:08.426Z,2.83
2023-04-30T16:29:35.306Z,1.55
2023-04-30T16:32:02.010Z,2.15
2023-04-30T16:34:28.745Z,42.88
2023-04-30T16:36:55.313Z,1.17
2023-04-30T16:39:22.013Z,0.80
2023-04-30T16:41:48.373Z,1.00
2023-04-30T16:44:14.918Z,0.80
2023-04-30T16:46:41.332Z,0.55
2023-04-30T16:49:07.534Z,0.93
2023-04-30T16:51:33.835Z,0.75
2023-04-30T16:54:00.165Z,0.70
2023-04-30T16:56:26.618Z,0.60
2023-04-30T16:58:52.923Z,0.98
2023-04-30T17:01:19.304Z,1.20
2023-04-30T17:03:46.243Z,0.80
2023-04-30T17:06:14.254Z,1.60
2023-04-30T17:08:40.872Z,2.88
2023-04-30T17:11:07.205Z,0.80
2023-04-30T17:13:33.468Z,0.75
2023-04-30T17:16:01.960Z,0.77
2023-04-30T17:18:28.650Z,0.65
2023-04-30T17:20:54.938Z,1.08
2023-04-30T17:23:21.457Z,1.13
2023-04-30T17:25:47.794Z,0.80
2023-04-30T17:28:14.073Z,0.90
2023-04-30T17:30:41.878Z,0.80
2023-04-30T17:33:08.624Z,1.10
2023-04-30T17:35:34.989Z,0.90
2023-04-30T17:38:01.313Z,1.10
2023-04-30T17:40:27.584Z,1.80
2023-04-30T17:42:53.873Z,13.65
2023-04-30T17:45:20.194Z,2.13
2023-04-30T17:47:46.704Z,1.00
2023-04-30T17:50:13.156Z,1.15
2023-04-30T17:52:39.455Z,0.90
2023-04-30T17:55:09.513Z,1.40
2023-04-30T17:57:36.098Z,1.20
2023-04-30T18:00:02.510Z,1.03
2023-04-30T18:02:29.121Z,1.30
2023-04-30T18:04:55.430Z,1.00
2023-04-30T18:07:21.744Z,1.37
2023-04-30T18:09:48.097Z,1.20
2023-04-30T18:12:14.358Z,0.83
2023-04-30T18:14:40.685Z,1.30
2023-04-30T18:17:07.146Z,1.47
2023-04-30T18:19:33.576Z,1.47
2023-04-30T18:22:00.400Z,1.53
2023-04-30T18:24:28.296Z,1.50
2023-04-30T18:26:55.037Z,1.30
2023-04-30T18:29:21.387Z,1.60
2023-04-30T18:31:48.299Z,1.60
2023-04-30T18:34:14.856Z,2.03
2023-04-30T18:36:44.103Z,1.90
2023-04-30T18:39:13.268Z,2.03
2023-04-30T18:41:39.528Z,1.90
2023-04-30T18:44:06.619Z,1.67
2023-04-30T18:46:32.977Z,15.07
2023-04-30T18:48:59.292Z,11.60
2023-04-30T18:51:25.828Z,2.50
2023-04-30T18:53:52.282Z,1.90
2023-04-30T18:56:18.608Z,1.40
2023-04-30T18:58:45.422Z,1.40
2023-04-30T19:01:12.153Z,1.50
2023-04-30T19:03:38.715Z,1.63
2023-04-30T19:06:05.140Z,1.70
2023-04-30T19:08:31.502Z,1.80
2023-04-30T19:10:57.807Z,1.70
2023-04-30T19:13:24.082Z,1.80
2023-04-30T19:15:50.440Z,1.50
2023-04-30T19:18:17.723Z,1.60
2023-04-30T19:20:53.663Z,1.40
2023-04-30T19:23:19.987Z,1.70
2023-04-30T19:25:47.339Z,1.40
2023-04-30T19:28:15.506Z,1.60
2023-04-30T19:30:42.721Z,1.50
2023-04-30T19:33:09.247Z,1.40
2023-04-30T19:35:35.791Z,2.03
2023-04-30T19:38:02.218Z,1.77
2023-04-30T19:40:28.547Z,1.37
2023-04-30T19:42:54.989Z,1.30
2023-04-30T19:45:21.275Z,1.50
2023-04-30T19:47:47.577Z,2.60
2023-04-30T19:50:13.932Z,5.60
2023-04-30T19:52:40.232Z,40.57
2023-04-30T19:55:06.642Z,14.73
2023-04-30T19:57:34.877Z,7.00
2023-04-30T20:00:03.968Z,3.87
2023-04-30T20:02:30.538Z,2.07
2023-04-30T20:04:58.516Z,1.90
2023-04-30T20:07:24.962Z,1.70
2023-04-30T20:09:51.345Z,1.80
2023-04-30T20:12:17.641Z,1.80
2023-04-30T20:14:43.965Z,2.00
2023-04-30T20:17:10.408Z,2.03
2023-04-30T20:19:37.012Z,2.40
2023-04-30T20:22:04.649Z,2.20
2023-04-30T20:24:30.961Z,2.23
2023-04-30T20:26:57.284Z,2.10
2023-04-30T20:29:23.668Z,2.03
2023-04-30T20:31:50.433Z,2.47
2023-04-30T20:34:16.815Z,3.53
2023-04-30T20:36:43.154Z,1.97
2023-04-30T20:39:09.694Z,1.80
2023-04-30T20:41:36.192Z,2.00
2023-04-30T20:44:02.499Z,2.73
2023-04-30T20:46:29.042Z,2.20
2023-04-30T20:49:01.038Z,2.53
2023-04-30T20:51:28.045Z,2.60
2023-04-30T20:53:54.566Z,2.60
2023-04-30T20:56:21.277Z,2.50
2023-04-30T20:58:47.555Z,2.57
2023-04-30T21:01:14.005Z,2.67
2023-04-30T21:03:40.341Z,2.47
2023-04-30T21:06:07.017Z,2.40
2023-04-30T21:08:33.310Z,2.70
2023-04-30T21:10:59.603Z,2.40
2023-04-30T21:13:25.845Z,2.40
2023-04-30T21:15:53.138Z,2.47
2023-04-30T21:18:19.516Z,2.50
2023-04-30T21:20:46.032Z,2.53
2023-04-30T21:23:12.553Z,2.60
2023-04-30T21:25:39.978Z,2.43
2023-04-30T21:28:06.352Z,2.80
2023-04-30T21:30:32.712Z,2.63
2023-04-30T21:32:59.408Z,2.57
2023-04-30T21:35:27.292Z,2.80
2023-04-30T21:37:54.062Z,2.93
2023-04-30T21:40:20.597Z,3.10
2023-04-30T21:42:46.887Z,2.93
2023-04-30T21:45:13.163Z,3.50
2023-04-30T21:47:39.551Z,3.50
2023-04-30T21:50:06.337Z,4.63
2023-04-30T21:52:32.916Z,9.30
2023-04-30T21:54:59.282Z,4.87
2023-04-30T21:57:25.630Z,4.73
2023-04-30T21:59:51.979Z,4.40
2023-04-30T22:02:23.814Z,5.70
2023-04-30T22:04:51.080Z,3.83
2023-04-30T22:07:17.441Z,5.53
2023-04-30T22:09:44.682Z,4.27
2023-04-30T22:12:11.091Z,5.47
2023-04-30T22:14:37.466Z,6.40
2023-04-30T22:17:03.761Z,5.20
2023-04-30T22:19:30.014Z,4.33
2023-04-30T22:21:56.362Z,4.10
2023-04-30T22:24:22.676Z,3.70
2023-04-30T22:26:49.533Z,5.67
2023-04-30T22:29:16.030Z,4.40
2023-04-30T22:31:42.424Z,4.53
2023-04-30T22:34:09.208Z,11.70
2023-04-30T22:36:35.551Z,4.73
2023-04-30T22:39:01.984Z,4.20
2023-04-30T22:41:28.521Z,3.80
2023-04-30T22:43:54.794Z,5.83
2023-04-30T22:46:21.161Z,7.47
2023-04-30T22:48:47.785Z,9.50
2023-04-30T22:51:14.072Z,5.90
2023-04-30T22:53:40.364Z,5.10
2023-04-30T22:56:06.828Z,4.83
2023-04-30T22:58:33.124Z,4.83
2023-04-30T23:00:59.442Z,4.50
2023-04-30T23:03:26.185Z,4.27
2023-04-30T23:05:52.525Z,4.57
2023-04-30T23:08:19.092Z,4.70
2023-04-30T23:10:45.583Z,4.20
2023-04-30T23:13:11.966Z,4.77
2023-04-30T23:15:38.290Z,4.83
2023-04-30T23:18:06.351Z,4.47
2023-04-30T23:20:32.732Z,4.40
2023-04-30T23:22:59.030Z,4.60
2023-04-30T23:25:25.384Z,4.80
2023-04-30T23:27:51.837Z,4.40
2023-04-30T23:30:18.212Z,4.30
2023-04-30T23:32:44.600Z,4.13
2023-04-30T23:35:11.970Z,4.40
2023-04-30T23:37:38.238Z,4.13
2023-04-30T23:40:07.246Z,4.00
2023-04-30T23:42:33.597Z,4.37
2023-04-30T23:44:59.931Z,4.37
2023-04-30T23:47:27.237Z,4.50
2023-04-30T23:49:53.872Z,4.00
2023-04-30T23:52:20.484Z,4.03
2023-04-30T23:54:46.819Z,4.17
2023-04-30T23:57:13.120Z,3.90
2023-04-30T23:59:39.621Z,4.00
